Flight Track Log - Related Links

Times and Time Zones

All times are in EST time to prevent confusion due to time zone crossing. See the N830W flight status page for this flight to view local times or setup timezone preferences in your user account.


Time Position Orientation Groundspeed Altitude Reporting Facility
EST Latitude Longitude Course Direction KTS MPH feet Rate Location/Type
Wed 10:29:25 AM 43.3411 -73.7603 256° West 105 121 4,600  Level Boston Center
Wed 10:30:17 AM 43.3333 -73.8017 256° West 118 136 4,800 53 Climbing Boston Center
Wed 10:31:18 AM 43.3244 -73.8517 256° West 146 168 4,700 -100 Descending Boston Center
Wed 10:32:17 AM 43.3197 -73.9031 263° West 138 159 4,600  Descending Boston Center
Wed 10:32:20 AM 43.3203 -73.9092 277° West 139 160 4,700 200 Climbing Boston Center
Wed 10:33:17 AM 43.3181 -73.9522 266° West 131 151 4,800 197 Climbing Boston Center
Wed 10:33:21 AM 43.3183 -73.9556 277° West 127 146 4,900 207 Climbing Boston Center
Wed 10:34:15 AM 43.3158 -74.0044 266° West 134 154 5,000  Climbing Boston Center
Wed 10:34:21 AM 43.3156 -74.0069 261° West 133 153 4,900  Descending Boston Center
Wed 10:35:15 AM 43.3125 -74.0564 265° West 138 159 5,000  Climbing Boston Center
Wed 10:35:21 AM 43.3133 -74.0592 292° West 136 157 4,900 98 Descending Boston Center
Wed 10:36:16 AM 43.3094 -74.1083 264° West 137 158 5,100 98 Climbing Boston Center
Wed 10:36:22 AM 43.3097 -74.1111 278° West 137 158 5,000  Descending Boston Center
Wed 10:37:16 AM 43.3075 -74.1547 266° West 124 143 5,100  Climbing Boston Center
Wed 10:37:25 AM 43.3058 -74.1656 258° West 133 153 5,000 -86 Descending Boston Center
Wed 10:38:26 AM 43.2989 -74.2194 260° West 142 163 5,000 -50 Level Boston Center
Wed 10:39:26 AM 43.2911 -74.2714 258° West 141 162 4,900 -95 Descending Boston Center
Wed 10:39:29 AM 43.2908 -74.2753 264° West 147 169 4,900  Level Boston Center
Wed 10:40:27 AM 43.2889 -74.3231 267° West 138 159 4,900  Level Boston Center
Wed 10:40:30 AM 43.2897 -74.3244 309° West 133 153 4,900  Level Boston Center
Wed 10:41:30 AM 43.2928 -74.3750 275° West 135 155 4,900  Level Boston Center
Wed 10:42:37 AM 43.2886 -74.4292 264° West 137 158 4,900 50 Level Boston Center
Wed 10:43:31 AM 43.2869 -74.4797 267° West 136 157 5,000 53 Climbing Boston Center
Wed 10:44:31 AM 43.2839 -74.5303 265° West 135 155 5,000 -83 Level Boston Center
Wed 10:44:43 AM 43.2819 -74.5408 256° West 135 155 4,900  Descending Boston Center
Wed 10:45:32 AM 43.2778 -74.5831 262° West 137 158 5,000  Climbing Boston Center
Wed 10:45:44 AM 43.2758 -74.5944 257° West 138 159 4,900  Descending Boston Center
Wed 10:46:36 AM 43.2708 -74.6353 260° West 138 159 5,000  Climbing Boston Center
Wed 10:46:45 AM 43.2703 -74.6453 266° West 139 160 4,900 100 Descending Boston Center
Wed 10:47:36 AM 43.2689 -74.6872 267° West 138 159 5,100 100 Climbing Boston Center
Wed 10:47:45 AM 43.2683 -74.6972 266° West 137 158 5,000  Descending Boston Center
Wed 10:48:37 AM 43.2689 -74.7386 271° West 137 158 5,100  Climbing Boston Center
Wed 10:48:40 AM 43.2689 -74.7500 270° West 136 157 5,000 -174 Descending Boston Center
Wed 10:49:46 AM 43.2658 -74.8103 266° West 140 161 4,900 -47 Descending Boston Center
Wed 10:50:49 AM 43.2639 -74.8622 267° West 139 160 4,900 52 Level Boston Center
Wed 10:51:41 AM 43.2614 -74.9061 266° West 138 159 5,000  Climbing Boston Center
Wed 10:51:50 AM 43.2600 -74.9136 256° West 137 158 4,900 -105 Descending Boston Center
Wed 10:52:38 AM 43.2581 -74.9539 266° West 137 158 4,900 118 Level Boston Center
Wed 10:52:41 AM 43.2581 -74.9583 270° West 138 159 5,000  Climbing Boston Center
Wed 10:53:39 AM 43.2533 -75.0106 263° West 139 160 4,900  Descending Boston Center
Wed 10:53:45 AM 43.2539 -75.0108 340° North 138 159 5,000  Climbing Boston Center
Wed 10:54:45 AM 43.2569 -75.0628 275° West 137 158 4,900 -182 Descending Boston Center
Wed 10:54:51 AM 43.2567 -75.0700 267° West 136 157 4,800  Descending Boston Center
Wed 10:55:45 AM 43.2558 -75.1150 269° West 137 158 4,900  Climbing Boston Center
Wed 10:55:51 AM 43.2547 -75.1219 258° West 136 157 4,800 -98 Descending Boston Center
Wed 10:56:46 AM 43.2528 -75.1678 267° West 138 159 4,800 -55 Level Boston Center
Wed 10:57:41 AM 43.2517 -75.2203 268° West 139 160 4,700  Descending Boston Center
Wed 10:57:47 AM 43.2517 -75.2217 270° West 138 159 4,800 86 Climbing Boston Center
Wed 10:58:51 AM 43.2481 -75.2742 265° West 138 159 4,800 -50 Level Boston Center
Wed 10:59:48 AM 43.2444 -75.3319 265° West 138 159 4,700  Descending Boston Center
Wed 10:59:51 AM 43.2450 -75.3275 80° East 138 159 4,800  Climbing Boston Center
Wed 11:00:49 AM 43.2400 -75.3861 263° West 140 161 4,700  Descending Boston Center
Wed 11:00:52 AM 43.2414 -75.3800 73° East 138 159 4,800 95 Climbing Boston Center
Wed 11:01:52 AM 43.2397 -75.4331 268° West 139 160 4,800 -54 Level Boston Center
Wed 11:02:44 AM 43.2383 -75.4878 268° West 139 160 4,700  Descending Boston Center
Wed 11:02:53 AM 43.2392 -75.4861 56° Northeast 139 160 4,800 82 Climbing Boston Center
Wed 11:03:57 AM 43.2400 -75.5500 271° West 140 161 4,800 -50 Level Boston Center
Wed 11:04:54 AM 43.2369 -75.6011 265° West 138 159 4,700  Descending Boston Center
Wed 11:04:57 AM 43.2383 -75.6025 324° Northwest 139 160 4,800 94 Climbing Boston Center
Wed 11:05:58 AM 43.2353 -75.6550 265° West 138 159 4,800 -51 Level Boston Center
Wed 11:06:55 AM 43.2306 -75.7044 263° West 136 157 4,700  Descending Boston Center
Wed 11:06:58 AM 43.2325 -75.7061 328° Northwest 137 158 4,800 -98 Climbing Boston Center
Wed 11:07:56 AM 43.2283 -75.7564 264° West 138 159 4,600 -94 Descending Boston Center
Wed 11:08:02 AM 43.2292 -75.7586 297° West 137 158 4,700 90 Climbing Boston Center
Wed 11:09:03 AM 43.2272 -75.8117 267° West 138 159 4,700 -104 Level Boston Center
Wed 11:09:57 AM 43.2250 -75.8664 267° West 139 160 4,500 -100 Descending Boston Center
Wed 11:10:03 AM 43.2258 -75.8633 69° East 138 159 4,600  Climbing Boston Center
Wed 11:10:58 AM 43.2247 -75.9189 268° West 139 160 4,500  Descending Boston Center
Wed 11:11:04 AM 43.2253 -75.9161 75° East 138 159 4,600  Climbing Boston Center
Wed 11:11:52 AM 43.2236 -75.9653 267° West 137 158 4,500 -95 Descending Boston Center
Wed 11:12:07 AM 43.2239 -75.9683 277° West 138 159 4,500  Level Boston Center
Wed 11:12:59 AM 43.2247 -76.0211 271° West 138 159 4,500  Level Boston Center
Wed 11:13:08 AM 43.2247 -76.0194 90° East 136 157 4,500  Level Boston Center
Wed 11:14:08 AM 43.2256 -76.0825 271° West 137 158 4,500  Level Boston Center
Wed 11:15:09 AM 43.2203 -76.1358 262° West 139 160 4,500  Level Boston Center
Wed 11:16:00 AM 43.2128 -76.1811 257° West 139 160 4,500  Level Boston Center
Wed 11:16:12 AM 43.2142 -76.1875 287° West 139 160 4,500  Level Boston Center
Wed 11:17:13 AM 43.2094 -76.2403 263° West 139 160 4,500  Level Boston Center
Wed 11:18:01 AM 43.2033 -76.2864 260° West 138 159 4,500  Level Boston Center
Wed 11:18:13 AM 43.2033 -76.2919 270° West 139 160 4,500  Level Boston Center
Wed 11:18:59 AM 43.2014 -76.3356 267° West 139 160 4,500  Level Boston Center
Wed 11:19:17 AM 43.2000 -76.3439 257° West 138 159 4,500  Level Boston Center
Wed 11:19:47 AM 43.1978 -76.3753 264° West 138 159 4,500  Level Cleveland Center
Wed 11:20:49 AM 43.1931 -76.4275 263° West 138 159 4,500  Level Cleveland Center
Wed 11:21:51 AM 43.1889 -76.4792 264° West 138 159 4,500  Level Cleveland Center
Wed 11:22:53 AM 43.1822 -76.5306 260° West 138 159 4,500 49 Level Cleveland Center
Wed 11:23:54 AM 43.1758 -76.5825 260° West 138 159 4,600  Climbing Cleveland Center
Wed 11:24:56 AM 43.1686 -76.6444 261° West 138 159 4,500 -48 Descending Cleveland Center
Wed 11:25:58 AM 43.1658 -76.6964 266° West 137 158 4,500  Level Cleveland Center
Wed 11:26:59 AM 43.1631 -76.7486 266° West 138 159 4,500  Level Cleveland Center
Wed 11:28:01 AM 43.1608 -76.8014 267° West 138 159 4,500  Level Cleveland Center
Wed 11:29:03 AM 43.1581 -76.8544 266° West 139 160 4,500  Level Cleveland Center
Wed 11:29:51 AM 43.1542 -76.9033 264° West 140 161 4,500  Level Cleveland Center
Wed 11:30:05 AM 43.1550 -76.9069 288° West 139 160 4,500  Level Cleveland Center
Wed 11:30:45 AM 43.1544 -76.9497 269° West 141 162 4,500  Level Cleveland Center
Wed 11:31:06 AM 43.1531 -76.9600 260° West 139 160 4,500  Level Cleveland Center
Wed 11:31:40 AM 43.1519 -76.9983 268° West 140 161 4,500  Level Cleveland Center
Wed 11:32:08 AM 43.1522 -77.0244 271° West 140 161 4,500  Level Cleveland Center
Wed 11:32:40 AM 43.1492 -77.0497 261° West 139 160 4,500  Level Cleveland Center
Wed 11:33:10 AM 43.1511 -77.0767 276° West 140 161 4,500 -98 Level Cleveland Center
Wed 11:33:41 AM 43.1478 -77.1072 262° West 139 160 4,400 -194 Descending Cleveland Center
Wed 11:34:12 AM 43.1483 -77.1300 272° West 140 161 4,300 -295 Descending Cleveland Center
Wed 11:34:42 AM 43.1464 -77.1619 265° West 145 167 4,100 -393 Descending Cleveland Center
Wed 11:35:13 AM 43.1481 -77.1853 276° West 143 165 3,900 -444 Descending Cleveland Center
Wed 11:35:36 AM 43.1456 -77.2139 263° West 144 166 3,700 -387 Descending Cleveland Center
Wed 11:36:15 AM 43.1486 -77.2397 279° West 143 165 3,500 -393 Descending Cleveland Center
Wed 11:36:37 AM 43.1469 -77.2664 265° West 141 162 3,300 -387 Descending Cleveland Center
Wed 11:37:17 AM 43.1472 -77.2928 271° West 142 163 3,100 -300 Descending Cleveland Center
Wed 11:37:37 AM 43.1456 -77.3211 265° West 140 161 3,000 -290 Descending Cleveland Center
Wed 11:38:19 AM 43.1478 -77.3450 277° West 140 161 2,800 -218 Descending Cleveland Center
Wed 11:38:32 AM 43.1456 -77.3672 262° West 136 157 2,800 -194 Level Cleveland Center
Wed 11:39:21 AM 43.1481 -77.4050 275° West 135 155 2,600 -200 Descending Cleveland Center
Wed 11:39:32 AM 43.1450 -77.4164 250° West 129 148 2,600 -98 Level Cleveland Center
Wed 11:40:22 AM 43.1475 -77.4578 275° West 133 153 2,500 -197 Descending Cleveland Center
Wed 11:40:33 AM 43.1444 -77.4656 242° Southwest 127 146 2,400 -167 Descending Cleveland Center
Wed 11:41:34 AM 43.1422 -77.5114 266° West 122 140 2,300 -248 Descending Cleveland Center
Wed 11:42:34 AM 43.1406 -77.5544 267° West 115 132 1,900 -397 Descending Cleveland Center
Wed 11:43:35 AM 43.1397 -77.5889 268° West 87 100 1,500 -298 Descending Cleveland Center
Wed 11:44:35 AM 43.1356 -77.6197 260° West 77 89 1,300 -298 Descending Cleveland Center
Wed 11:45:36 AM 43.1253 -77.6461 242° Southwest 73 84 900 -393 Descending Cleveland Center

Login

Don't have an account? Register now (free) for customized features, flight alerts, and more!